sensor_id;sensor_type;location;lat;lon;timestamp;P1;durP1;ratioP1;P2;durP2;ratioP2
44126;SDS011;29786;50.798;7.302;2022-07-23T00:00:51;17.2;;;13.1;;
44126;SDS011;29786;50.798;7.302;2022-07-23T00:01:51;20.2;;;13.4;;
44126;SDS011;29786;50.798;7.302;2022-07-23T00:02:51;18.9;;;14.2;;
44126;SDS011;29786;50.798;7.302;2022-07-23T00:03:56;17.7;;;13.4;;
44126;SDS011;29786;50.798;7.302;2022-07-23T00:04:51;17.5;;;12.6;;
44126;SDS011;29786;50.798;7.302;2022-07-23T00:05:51;20.4;;;13.5;;
44126;SDS011;29786;50.798;7.302;2022-07-23T00:06:55;20.4;;;13.5;;
44126;SDS011;29786;50.798;7.302;2022-07-23T00:07:51;19.7;;;13.3;;
44126;SDS011;29786;50.798;7.302;2022-07-23T00:08:51;16.1;;;12.8;;
44126;SDS011;29786;50.798;7.302;2022-07-23T00:09:51;18.7;;;13;;
44126;SDS011;29786;50.798;7.302;2022-07-23T00:10:51;18.3;;;13.1;;
44126;SDS011;29786;50.798;7.302;2022-07-23T00:11:51;16.8;;;13;;
44126;SDS011;29786;50.798;7.302;2022-07-23T00:12:51;21.6;;;13.1;;
44126;SDS011;29786;50.798;7.302;2022-07-23T00:13:51;17.8;;;13.3;;
44126;SDS011;29786;50.798;7.302;2022-07-23T00:14:51;17.8;;;13.3;;
44126;SDS011;29786;50.798;7.302;2022-07-23T00:15:51;18.8;;;13.7;;
44126;SDS011;29786;50.798;7.302;2022-07-23T00:16:51;18.8;;;12.6;;
44126;SDS011;29786;50.798;7.302;2022-07-23T00:17:51;18;;;13.4;;
44126;SDS011;29786;50.798;7.302;2022-07-23T00:18:51;17.4;;;13.1;;
44126;SDS011;29786;50.798;7.302;2022-07-23T00:19:51;17.2;;;13.7;;
44126;SDS011;29786;50.798;7.302;2022-07-23T00:20:51;17.9;;;12.7;;
44126;SDS011;29786;50.798;7.302;2022-07-23T00:21:51;17.2;;;12.6;;
44126;SDS011;29786;50.798;7.302;2022-07-23T00:22:52;17.2;;;12.6;;
44126;SDS011;29786;50.798;7.302;2022-07-23T00:23:51;17.2;;;12.1;;
44126;SDS011;29786;50.798;7.302;2022-07-23T00:24:51;16.4;;;12.1;;
44126;SDS011;29786;50.798;7.302;2022-07-23T00:25:51;17.6;;;13.4;;
44126;SDS011;29786;50.798;7.302;2022-07-23T00:26:51;20;;;13;;
44126;SDS011;29786;50.798;7.302;2022-07-23T00:27:51;20.4;;;13.8;;
44126;SDS011;29786;50.798;7.302;2022-07-23T00:28:51;17.3;;;13;;
44126;SDS011;29786;50.798;7.302;2022-07-23T00:29:51;17.3;;;13;;
44126;SDS011;29786;50.798;7.302;2022-07-23T00:30:51;15.9;;;12.3;;
44126;SDS011;29786;50.798;7.302;2022-07-23T00:31:52;16.3;;;13;;
44126;SDS011;29786;50.798;7.302;2022-07-23T00:32:52;18.7;;;13.8;;
44126;SDS011;29786;50.798;7.302;2022-07-23T00:33:51;17;;;13.9;;
44126;SDS011;29786;50.798;7.302;2022-07-23T00:34:51;19.5;;;13.8;;
44126;SDS011;29786;50.798;7.302;2022-07-23T00:35:51;19;;;14;;
44126;SDS011;29786;50.798;7.302;2022-07-23T00:36:51;17.9;;;12.9;;
44126;SDS011;29786;50.798;7.302;2022-07-23T00:37:51;21.5;;;13.9;;
44126;SDS011;29786;50.798;7.302;2022-07-23T00:38:51;21.5;;;13.9;;
44126;SDS011;29786;50.798;7.302;2022-07-23T00:39:51;21.2;;;14.2;;
44126;SDS011;29786;50.798;7.302;2022-07-23T00:40:51;17.9;;;13.9;;
44126;SDS011;29786;50.798;7.302;2022-07-23T00:41:51;17.4;;;13.4;;
44126;SDS011;29786;50.798;7.302;2022-07-23T00:42:51;16.8;;;12.5;;
44126;SDS011;29786;50.798;7.302;2022-07-23T00:43:51;15.2;;;11.6;;
44126;SDS011;29786;50.798;7.302;2022-07-23T00:44:56;14.9;;;12.5;;
44126;SDS011;29786;50.798;7.302;2022-07-23T00:45:56;14.4;;;12.6;;
44126;SDS011;29786;50.798;7.302;2022-07-23T00:46:52;14.4;;;12.6;;
44126;SDS011;29786;50.798;7.302;2022-07-23T00:47:51;18;;;13.3;;
44126;SDS011;29786;50.798;7.302;2022-07-23T00:48:55;14.9;;;11.1;;
44126;SDS011;29786;50.798;7.302;2022-07-23T00:49:51;17;;;12.1;;
44126;SDS011;29786;50.798;7.302;2022-07-23T00:50:51;18.9;;;13.4;;
44126;SDS011;29786;50.798;7.302;2022-07-23T00:51:51;17.5;;;13.4;;
44126;SDS011;29786;50.798;7.302;2022-07-23T00:52:51;17.7;;;13.5;;
44126;SDS011;29786;50.798;7.302;2022-07-23T00:53:51;16.5;;;13.4;;
44126;SDS011;29786;50.798;7.302;2022-07-23T00:54:51;16.5;;;13.4;;
44126;SDS011;29786;50.798;7.302;2022-07-23T00:55:51;17;;;13.7;;
44126;SDS011;29786;50.798;7.302;2022-07-23T00:56:51;16.7;;;12.2;;
44126;SDS011;29786;50.798;7.302;2022-07-23T00:57:56;16.3;;;13.1;;
44126;SDS011;29786;50.798;7.302;2022-07-23T00:58:51;16.4;;;13.1;;
44126;SDS011;29786;50.798;7.302;2022-07-23T00:59:51;18.6;;;14.3;;
44126;SDS011;29786;50.798;7.302;2022-07-23T01:00:51;20.5;;;14.9;;
44126;SDS011;29786;50.798;7.302;2022-07-23T01:01:57;20.7;;;15.2;;
44126;SDS011;29786;50.798;7.302;2022-07-23T01:02:51;20.7;;;15.2;;
44126;SDS011;29786;50.798;7.302;2022-07-23T01:03:51;17.3;;;13.8;;
44126;SDS011;29786;50.798;7.302;2022-07-23T01:04:51;18.8;;;14.4;;
44126;SDS011;29786;50.798;7.302;2022-07-23T01:05:51;18.5;;;13.8;;
44126;SDS011;29786;50.798;7.302;2022-07-23T01:06:52;18.5;;;13.7;;
44126;SDS011;29786;50.798;7.302;2022-07-23T01:07:51;19.7;;;14.6;;
44126;SDS011;29786;50.798;7.302;2022-07-23T01:08:51;20.2;;;14.9;;
44126;SDS011;29786;50.798;7.302;2022-07-23T01:09:51;22.2;;;14.8;;
44126;SDS011;29786;50.798;7.302;2022-07-23T01:10:51;22.2;;;14.8;;
44126;SDS011;29786;50.798;7.302;2022-07-23T01:11:51;19.6;;;15;;
44126;SDS011;29786;50.798;7.302;2022-07-23T01:12:51;19.8;;;14.5;;
44126;SDS011;29786;50.798;7.302;2022-07-23T01:13:51;18;;;14.9;;
44126;SDS011;29786;50.798;7.302;2022-07-23T01:14:54;17.5;;;13.5;;
44126;SDS011;29786;50.798;7.302;2022-07-23T01:15:50;19;;;14;;
44126;SDS011;29786;50.798;7.302;2022-07-23T01:16:51;17.3;;;14;;
44126;SDS011;29786;50.798;7.302;2022-07-23T01:17:51;16.9;;;13;;
44126;SDS011;29786;50.798;7.302;2022-07-23T01:18:50;16.9;;;13;;
44126;SDS011;29786;50.798;7.302;2022-07-23T01:19:50;18.1;;;13.4;;
44126;SDS011;29786;50.798;7.302;2022-07-23T01:20:50;15.9;;;12.1;;
44126;SDS011;29786;50.798;7.302;2022-07-23T01:21:51;17.3;;;13.6;;
44126;SDS011;29786;50.798;7.302;2022-07-23T01:22:51;19.7;;;14.8;;
44126;SDS011;29786;50.798;7.302;2022-07-23T01:23:50;18.3;;;13.8;;
44126;SDS011;29786;50.798;7.302;2022-07-23T01:24:51;20.9;;;14.3;;
44126;SDS011;29786;50.798;7.302;2022-07-23T01:25:52;19.2;;;14.7;;
44126;SDS011;29786;50.798;7.302;2022-07-23T01:26:51;19.2;;;14.7;;
44126;SDS011;29786;50.798;7.302;2022-07-23T01:27:51;19.6;;;14.8;;
44126;SDS011;29786;50.798;7.302;2022-07-23T01:28:50;18.1;;;14.2;;
44126;SDS011;29786;50.798;7.302;2022-07-23T01:29:50;20.7;;;14;;
44126;SDS011;29786;50.798;7.302;2022-07-23T01:30:50;22;;;14.8;;
44126;SDS011;29786;50.798;7.302;2022-07-23T01:31:50;22.6;;;15.5;;
44126;SDS011;29786;50.798;7.302;2022-07-23T01:32:51;19.4;;;15;;
44126;SDS011;29786;50.798;7.302;2022-07-23T01:33:51;21.8;;;15.6;;
44126;SDS011;29786;50.798;7.302;2022-07-23T01:34:50;21.8;;;15.6;;
44126;SDS011;29786;50.798;7.302;2022-07-23T01:35:50;20.8;;;14.9;;
44126;SDS011;29786;50.798;7.302;2022-07-23T01:36:50;21.7;;;15.6;;
44126;SDS011;29786;50.798;7.302;2022-07-23T01:37:51;19.9;;;15.4;;
44126;SDS011;29786;50.798;7.302;2022-07-23T01:38:50;17.8;;;13.3;;
44126;SDS011;29786;50.798;7.302;2022-07-23T01:39:50;20.5;;;14.7;;
44126;SDS011;29786;50.798;7.302;2022-07-23T01:40:51;16.9;;;13.8;;
44126;SDS011;29786;50.798;7.302;2022-07-23T01:41:51;18.7;;;13.5;;
44126;SDS011;29786;50.798;7.302;2022-07-23T01:42:50;18.7;;;13.5;;
44126;SDS011;29786;50.798;7.302;2022-07-23T01:43:50;17.8;;;13.6;;
44126;SDS011;29786;50.798;7.302;2022-07-23T01:44:50;17.1;;;14.5;;
44126;SDS011;29786;50.798;7.302;2022-07-23T01:45:50;16.3;;;12.8;;
44126;SDS011;29786;50.798;7.302;2022-07-23T01:46:50;18.1;;;12.6;;
44126;SDS011;29786;50.798;7.302;2022-07-23T01:47:50;20;;;14.5;;
44126;SDS011;29786;50.798;7.302;2022-07-23T01:48:51;17.9;;;12.8;;
44126;SDS011;29786;50.798;7.302;2022-07-23T01:49:51;17.9;;;13.3;;
44126;SDS011;29786;50.798;7.302;2022-07-23T01:50:50;17.9;;;13.3;;
44126;SDS011;29786;50.798;7.302;2022-07-23T01:51:50;18.5;;;13.8;;
44126;SDS011;29786;50.798;7.302;2022-07-23T01:52:50;20.4;;;14.3;;
44126;SDS011;29786;50.798;7.302;2022-07-23T01:53:51;18.2;;;14.2;;
44126;SDS011;29786;50.798;7.302;2022-07-23T01:54:51;18.9;;;14.4;;
44126;SDS011;29786;50.798;7.302;2022-07-23T01:55:51;24.7;;;14.4;;
44126;SDS011;29786;50.798;7.302;2022-07-23T01:56:51;17;;;13.2;;
44126;SDS011;29786;50.798;7.302;2022-07-23T01:57:51;16.3;;;13.4;;
44126;SDS011;29786;50.798;7.302;2022-07-23T01:58:50;16.3;;;13.4;;
44126;SDS011;29786;50.798;7.302;2022-07-23T01:59:50;16.9;;;13.6;;
44126;SDS011;29786;50.798;7.302;2022-07-23T02:00:51;18.3;;;14.4;;
44126;SDS011;29786;50.798;7.302;2022-07-23T02:01:50;22.7;;;16.1;;
44126;SDS011;29786;50.798;7.302;2022-07-23T02:02:50;19.6;;;14.6;;
44126;SDS011;29786;50.798;7.302;2022-07-23T02:03:50;21.1;;;15;;
44126;SDS011;29786;50.798;7.302;2022-07-23T02:04:51;19.7;;;14.8;;
44126;SDS011;29786;50.798;7.302;2022-07-23T02:05:51;17.9;;;14.2;;
44126;SDS011;29786;50.798;7.302;2022-07-23T02:06:51;17.9;;;14.2;;
44126;SDS011;29786;50.798;7.302;2022-07-23T02:07:51;21.8;;;14.1;;
44126;SDS011;29786;50.798;7.302;2022-07-23T02:08:50;21.1;;;14.7;;
44126;SDS011;29786;50.798;7.302;2022-07-23T02:09:50;19.7;;;13.7;;
44126;SDS011;29786;50.798;7.302;2022-07-23T02:10:50;20.5;;;15;;
44126;SDS011;29786;50.798;7.302;2022-07-23T02:11:50;20.9;;;14.8;;
44126;SDS011;29786;50.798;7.302;2022-07-23T02:12:51;19.9;;;13.6;;
44126;SDS011;29786;50.798;7.302;2022-07-23T02:13:51;18.9;;;15.1;;
44126;SDS011;29786;50.798;7.302;2022-07-23T02:14:50;18.9;;;15.1;;
44126;SDS011;29786;50.798;7.302;2022-07-23T02:15:51;20.6;;;14.4;;
44126;SDS011;29786;50.798;7.302;2022-07-23T02:16:50;21.1;;;14.5;;
44126;SDS011;29786;50.798;7.302;2022-07-23T02:17:50;19.2;;;13.8;;
44126;SDS011;29786;50.798;7.302;2022-07-23T02:18:51;22.3;;;15.2;;
44126;SDS011;29786;50.798;7.302;2022-07-23T02:19:51;18.5;;;14.8;;
44126;SDS011;29786;50.798;7.302;2022-07-23T02:20:51;19.8;;;14.5;;
44126;SDS011;29786;50.798;7.302;2022-07-23T02:21:51;19.5;;;15.5;;
44126;SDS011;29786;50.798;7.302;2022-07-23T02:22:50;19.5;;;15.5;;
44126;SDS011;29786;50.798;7.302;2022-07-23T02:23:51;17;;;14.6;;
44126;SDS011;29786;50.798;7.302;2022-07-23T02:24:51;22.5;;;16.1;;
44126;SDS011;29786;50.798;7.302;2022-07-23T02:25:50;21.6;;;14.8;;
44126;SDS011;29786;50.798;7.302;2022-07-23T02:26:51;21.4;;;14.3;;
44126;SDS011;29786;50.798;7.302;2022-07-23T02:27:50;21.4;;;14.3;;
44126;SDS011;29786;50.798;7.302;2022-07-23T02:28:51;20.6;;;14.3;;
44126;SDS011;29786;50.798;7.302;2022-07-23T02:29:51;19.4;;;15.1;;
44126;SDS011;29786;50.798;7.302;2022-07-23T02:30:50;19.4;;;15.1;;
44126;SDS011;29786;50.798;7.302;2022-07-23T02:31:50;21.7;;;14.9;;
44126;SDS011;29786;50.798;7.302;2022-07-23T02:32:51;19.6;;;15.2;;
44126;SDS011;29786;50.798;7.302;2022-07-23T02:33:50;18.6;;;13.6;;
44126;SDS011;29786;50.798;7.302;2022-07-23T02:34:51;14.9;;;12.9;;
44126;SDS011;29786;50.798;7.302;2022-07-23T02:35:50;14.9;;;12.9;;
44126;SDS011;29786;50.798;7.302;2022-07-23T02:36:51;18.6;;;13.7;;
44126;SDS011;29786;50.798;7.302;2022-07-23T02:37:51;21;;;15.3;;
44126;SDS011;29786;50.798;7.302;2022-07-23T02:38:51;21;;;15.3;;
44126;SDS011;29786;50.798;7.302;2022-07-23T02:39:51;20.4;;;15;;
44126;SDS011;29786;50.798;7.302;2022-07-23T02:40:51;18.7;;;13.8;;
44126;SDS011;29786;50.798;7.302;2022-07-23T02:41:51;18.3;;;13;;
44126;SDS011;29786;50.798;7.302;2022-07-23T02:42:51;20.4;;;14.8;;
44126;SDS011;29786;50.798;7.302;2022-07-23T02:43:51;24.4;;;15.3;;
44126;SDS011;29786;50.798;7.302;2022-07-23T02:44:51;20.8;;;14.2;;
44126;SDS011;29786;50.798;7.302;2022-07-23T02:45:51;18.7;;;14.2;;
44126;SDS011;29786;50.798;7.302;2022-07-23T02:46:51;18.7;;;14.2;;
44126;SDS011;29786;50.798;7.302;2022-07-23T02:47:51;18.8;;;14.7;;
44126;SDS011;29786;50.798;7.302;2022-07-23T02:48:50;20.1;;;13.9;;
44126;SDS011;29786;50.798;7.302;2022-07-23T02:49:50;21.6;;;14.7;;
44126;SDS011;29786;50.798;7.302;2022-07-23T02:50:51;20.4;;;14.5;;
44126;SDS011;29786;50.798;7.302;2022-07-23T02:51:51;17.5;;;13.1;;
44126;SDS011;29786;50.798;7.302;2022-07-23T02:52:51;19;;;14.8;;
44126;SDS011;29786;50.798;7.302;2022-07-23T02:53:51;23;;;15;;
44126;SDS011;29786;50.798;7.302;2022-07-23T02:54:50;23;;;15;;
44126;SDS011;29786;50.798;7.302;2022-07-23T02:55:51;18.1;;;14.8;;
44126;SDS011;29786;50.798;7.302;2022-07-23T02:56:51;19.7;;;14;;
44126;SDS011;29786;50.798;7.302;2022-07-23T02:57:50;19.2;;;14.2;;
44126;SDS011;29786;50.798;7.302;2022-07-23T02:58:51;20.5;;;15.1;;
44126;SDS011;29786;50.798;7.302;2022-07-23T02:59:50;22.5;;;15.7;;
44126;SDS011;29786;50.798;7.302;2022-07-23T03:00:51;18.5;;;14.2;;
44126;SDS011;29786;50.798;7.302;2022-07-23T03:01:51;18.1;;;13.4;;
44126;SDS011;29786;50.798;7.302;2022-07-23T03:24:45;16.8;;;14.4;;
44126;SDS011;29786;50.798;7.302;2022-07-23T03:25:38;25.5;;;17.1;;
44126;SDS011;29786;50.798;7.302;2022-07-23T03:26:32;22.4;;;17.3;;
44126;SDS011;29786;50.798;7.302;2022-07-23T03:27:26;23.5;;;16.6;;
44126;SDS011;29786;50.798;7.302;2022-07-23T03:28:35;25.6;;;16.8;;
44126;SDS011;29786;50.798;7.302;2022-07-23T03:29:29;22.3;;;16.6;;
44126;SDS011;29786;50.798;7.302;2022-07-23T03:30:06;22.3;;;16.6;;
44126;SDS011;29786;50.798;7.302;2022-07-23T03:30:25;17.4;;;13.4;;
44126;SDS011;29786;50.798;7.302;2022-07-23T03:31:06;22.1;;;15.8;;
44126;SDS011;29786;50.798;7.302;2022-07-23T03:31:35;23.4;;;15;;
44126;SDS011;29786;50.798;7.302;2022-07-23T03:32:05;19.6;;;14.7;;
44126;SDS011;29786;50.798;7.302;2022-07-23T03:32:48;22;;;15.5;;
44126;SDS011;29786;50.798;7.302;2022-07-23T03:33:48;23.5;;;16.8;;
44126;SDS011;29786;50.798;7.302;2022-07-23T03:34:48;24.4;;;16.8;;
44126;SDS011;29786;50.798;7.302;2022-07-23T03:35:49;21.3;;;16.4;;
44126;SDS011;29786;50.798;7.302;2022-07-23T03:36:48;24.3;;;17.6;;
44126;SDS011;29786;50.798;7.302;2022-07-23T03:37:48;25.3;;;18.3;;
44126;SDS011;29786;50.798;7.302;2022-07-23T03:38:48;24.6;;;17.5;;
44126;SDS011;29786;50.798;7.302;2022-07-23T03:39:48;24.9;;;17.9;;
44126;SDS011;29786;50.798;7.302;2022-07-23T03:40:48;25.2;;;18.3;;
44126;SDS011;29786;50.798;7.302;2022-07-23T03:41:48;25.6;;;19;;
44126;SDS011;29786;50.798;7.302;2022-07-23T03:42:48;23.4;;;17.5;;
44126;SDS011;29786;50.798;7.302;2022-07-23T03:43:48;26;;;18.5;;
44126;SDS011;29786;50.798;7.302;2022-07-23T03:44:48;25.9;;;18.9;;
44126;SDS011;29786;50.798;7.302;2022-07-23T03:45:48;27.4;;;19.2;;
44126;SDS011;29786;50.798;7.302;2022-07-23T03:46:48;28.7;;;20.1;;
44126;SDS011;29786;50.798;7.302;2022-07-23T03:47:48;25.9;;;19.9;;
44126;SDS011;29786;50.798;7.302;2022-07-23T03:48:48;26.4;;;19.1;;
44126;SDS011;29786;50.798;7.302;2022-07-23T03:49:49;28.6;;;19.8;;
44126;SDS011;29786;50.798;7.302;2022-07-23T03:50:48;24.9;;;19.2;;
44126;SDS011;29786;50.798;7.302;2022-07-23T03:51:48;29.8;;;19.6;;
44126;SDS011;29786;50.798;7.302;2022-07-23T03:52:48;27.4;;;19.8;;
44126;SDS011;29786;50.798;7.302;2022-07-23T03:53:48;28.7;;;20.2;;
44126;SDS011;29786;50.798;7.302;2022-07-23T03:54:48;28;;;20.3;;
44126;SDS011;29786;50.798;7.302;2022-07-23T03:55:48;26.2;;;19.7;;
44126;SDS011;29786;50.798;7.302;2022-07-23T03:56:48;28.5;;;19.9;;
44126;SDS011;29786;50.798;7.302;2022-07-23T03:57:48;26.4;;;19.7;;
44126;SDS011;29786;50.798;7.302;2022-07-23T03:58:48;30.3;;;20.2;;
44126;SDS011;29786;50.798;7.302;2022-07-23T03:59:48;29.4;;;21.3;;
44126;SDS011;29786;50.798;7.302;2022-07-23T04:00:48;28.5;;;20.3;;
44126;SDS011;29786;50.798;7.302;2022-07-23T04:01:48;30.8;;;19.7;;
44126;SDS011;29786;50.798;7.302;2022-07-23T04:02:49;30.7;;;21.4;;
44126;SDS011;29786;50.798;7.302;2022-07-23T04:03:48;30;;;20.6;;
44126;SDS011;29786;50.798;7.302;2022-07-23T04:04:48;28.3;;;21.2;;
44126;SDS011;29786;50.798;7.302;2022-07-23T04:05:48;30.7;;;20.9;;
44126;SDS011;29786;50.798;7.302;2022-07-23T04:06:48;30.6;;;21.3;;
44126;SDS011;29786;50.798;7.302;2022-07-23T04:07:48;29.5;;;21.6;;
44126;SDS011;29786;50.798;7.302;2022-07-23T04:08:48;31.8;;;22.1;;
44126;SDS011;29786;50.798;7.302;2022-07-23T04:09:48;30;;;20.8;;
44126;SDS011;29786;50.798;7.302;2022-07-23T04:10:48;30.8;;;21.6;;
44126;SDS011;29786;50.798;7.302;2022-07-23T04:11:48;29.2;;;20;;
44126;SDS011;29786;50.798;7.302;2022-07-23T04:12:48;28.3;;;20.3;;
44126;SDS011;29786;50.798;7.302;2022-07-23T04:13:48;28.9;;;20.3;;
44126;SDS011;29786;50.798;7.302;2022-07-23T04:14:48;27.3;;;20.1;;
44126;SDS011;29786;50.798;7.302;2022-07-23T04:15:48;30.8;;;21;;
44126;SDS011;29786;50.798;7.302;2022-07-23T04:16:48;29.2;;;20.7;;
44126;SDS011;29786;50.798;7.302;2022-07-23T04:17:48;27;;;20.8;;
44126;SDS011;29786;50.798;7.302;2022-07-23T04:18:48;28.2;;;20.8;;
44126;SDS011;29786;50.798;7.302;2022-07-23T04:19:48;28.4;;;20.6;;
44126;SDS011;29786;50.798;7.302;2022-07-23T04:20:50;30.4;;;19.8;;
44126;SDS011;29786;50.798;7.302;2022-07-23T04:21:48;26.7;;;19.9;;
44126;SDS011;29786;50.798;7.302;2022-07-23T04:22:48;27.8;;;20.3;;
44126;SDS011;29786;50.798;7.302;2022-07-23T04:23:48;27.3;;;20;;
44126;SDS011;29786;50.798;7.302;2022-07-23T04:24:48;25.9;;;19.1;;
44126;SDS011;29786;50.798;7.302;2022-07-23T04:25:48;25.2;;;20;;
44126;SDS011;29786;50.798;7.302;2022-07-23T04:26:48;26.8;;;19.1;;
44126;SDS011;29786;50.798;7.302;2022-07-23T04:27:48;24.6;;;19.7;;
44126;SDS011;29786;50.798;7.302;2022-07-23T04:28:48;27.8;;;20.7;;
44126;SDS011;29786;50.798;7.302;2022-07-23T04:29:48;27.3;;;20.1;;
44126;SDS011;29786;50.798;7.302;2022-07-23T04:30:49;27.7;;;19.6;;
44126;SDS011;29786;50.798;7.302;2022-07-23T04:31:48;27.2;;;19.9;;
44126;SDS011;29786;50.798;7.302;2022-07-23T04:32:48;28;;;19.8;;
44126;SDS011;29786;50.798;7.302;2022-07-23T04:33:48;27.2;;;20.4;;
44126;SDS011;29786;50.798;7.302;2022-07-23T04:34:48;26.5;;;19.9;;
44126;SDS011;29786;50.798;7.302;2022-07-23T04:35:48;29.4;;;21.3;;
44126;SDS011;29786;50.798;7.302;2022-07-23T04:36:48;32;;;21.7;;
44126;SDS011;29786;50.798;7.302;2022-07-23T04:37:48;31.4;;;21.5;;
44126;SDS011;29786;50.798;7.302;2022-07-23T04:38:48;27.8;;;21.1;;
44126;SDS011;29786;50.798;7.302;2022-07-23T04:39:48;29.4;;;21.4;;
44126;SDS011;29786;50.798;7.302;2022-07-23T04:40:48;33;;;22.9;;
44126;SDS011;29786;50.798;7.302;2022-07-23T04:41:48;31;;;22.7;;
44126;SDS011;29786;50.798;7.302;2022-07-23T04:42:48;31.5;;;22.9;;
44126;SDS011;29786;50.798;7.302;2022-07-23T04:43:48;34.2;;;23.2;;
44126;SDS011;29786;50.798;7.302;2022-07-23T04:44:48;32.4;;;23.3;;
44126;SDS011;29786;50.798;7.302;2022-07-23T04:45:48;34.7;;;24;;
44126;SDS011;29786;50.798;7.302;2022-07-23T04:46:48;33.8;;;23.9;;
44126;SDS011;29786;50.798;7.302;2022-07-23T04:47:48;39.4;;;25.6;;
44126;SDS011;29786;50.798;7.302;2022-07-23T04:48:48;40.3;;;26.7;;
44126;SDS011;29786;50.798;7.302;2022-07-23T04:49:48;43.6;;;26.4;;
44126;SDS011;29786;50.798;7.302;2022-07-23T04:50:48;44.3;;;28.4;;
44126;SDS011;29786;50.798;7.302;2022-07-23T04:51:48;41;;;27.8;;
44126;SDS011;29786;50.798;7.302;2022-07-23T04:52:48;48;;;29.5;;
44126;SDS011;29786;50.798;7.302;2022-07-23T04:53:48;44;;;28.2;;
44126;SDS011;29786;50.798;7.302;2022-07-23T04:54:48;47.5;;;29;;
44126;SDS011;29786;50.798;7.302;2022-07-23T04:55:48;47.8;;;29.9;;
44126;SDS011;29786;50.798;7.302;2022-07-23T04:56:48;46.1;;;29.5;;
44126;SDS011;29786;50.798;7.302;2022-07-23T04:57:48;47.4;;;29.4;;
44126;SDS011;29786;50.798;7.302;2022-07-23T04:58:48;51.7;;;29.8;;
44126;SDS011;29786;50.798;7.302;2022-07-23T04:59:48;50.3;;;30.3;;
44126;SDS011;29786;50.798;7.302;2022-07-23T05:00:48;58.4;;;32.6;;
44126;SDS011;29786;50.798;7.302;2022-07-23T05:01:48;57.6;;;34.2;;
44126;SDS011;29786;50.798;7.302;2022-07-23T05:02:48;62.5;;;35;;
44126;SDS011;29786;50.798;7.302;2022-07-23T05:03:48;56.4;;;33.6;;
44126;SDS011;29786;50.798;7.302;2022-07-23T05:04:48;63.5;;;35.2;;
44126;SDS011;29786;50.798;7.302;2022-07-23T05:05:49;61.6;;;35.6;;
44126;SDS011;29786;50.798;7.302;2022-07-23T05:06:48;60.8;;;35.7;;
44126;SDS011;29786;50.798;7.302;2022-07-23T05:07:48;63.8;;;35.7;;
44126;SDS011;29786;50.798;7.302;2022-07-23T05:08:48;58.9;;;34.1;;
44126;SDS011;29786;50.798;7.302;2022-07-23T05:09:48;59.4;;;34.5;;
44126;SDS011;29786;50.798;7.302;2022-07-23T05:10:48;57.9;;;33.7;;
44126;SDS011;29786;50.798;7.302;2022-07-23T05:11:48;56.6;;;34.3;;
44126;SDS011;29786;50.798;7.302;2022-07-23T05:12:48;58.2;;;34.1;;
44126;SDS011;29786;50.798;7.302;2022-07-23T05:13:48;63.9;;;35.5;;
44126;SDS011;29786;50.798;7.302;2022-07-23T05:14:48;62.1;;;34.1;;
44126;SDS011;29786;50.798;7.302;2022-07-23T05:15:48;55.8;;;33;;
44126;SDS011;29786;50.798;7.302;2022-07-23T05:16:48;62;;;34.7;;
44126;SDS011;29786;50.798;7.302;2022-07-23T05:17:48;58.8;;;33.7;;
44126;SDS011;29786;50.798;7.302;2022-07-23T05:18:48;63.9;;;35.3;;
44126;SDS011;29786;50.798;7.302;2022-07-23T05:19:48;60.4;;;34.4;;
44126;SDS011;29786;50.798;7.302;2022-07-23T05:20:48;57.2;;;34.2;;
44126;SDS011;29786;50.798;7.302;2022-07-23T05:21:48;62.4;;;34.4;;
44126;SDS011;29786;50.798;7.302;2022-07-23T05:22:48;59.9;;;34.4;;
44126;SDS011;29786;50.798;7.302;2022-07-23T05:23:48;60.1;;;33.8;;
44126;SDS011;29786;50.798;7.302;2022-07-23T05:24:48;58.9;;;33.1;;
44126;SDS011;29786;50.798;7.302;2022-07-23T05:25:48;57;;;33.3;;
44126;SDS011;29786;50.798;7.302;2022-07-23T05:26:48;57.7;;;32;;
44126;SDS011;29786;50.798;7.302;2022-07-23T05:27:48;51;;;30.9;;
44126;SDS011;29786;50.798;7.302;2022-07-23T05:28:48;51.9;;;31.2;;
44126;SDS011;29786;50.798;7.302;2022-07-23T05:29:48;53.8;;;31.1;;
44126;SDS011;29786;50.798;7.302;2022-07-23T05:30:48;51.9;;;31.6;;
44126;SDS011;29786;50.798;7.302;2022-07-23T05:31:48;46.7;;;29.9;;
44126;SDS011;29786;50.798;7.302;2022-07-23T05:32:48;50.3;;;30.2;;
44126;SDS011;29786;50.798;7.302;2022-07-23T05:33:48;48.2;;;29.9;;
44126;SDS011;29786;50.798;7.302;2022-07-23T05:34:48;47.8;;;28.8;;
44126;SDS011;29786;50.798;7.302;2022-07-23T05:35:48;45.7;;;28.8;;
44126;SDS011;29786;50.798;7.302;2022-07-23T05:36:48;45.8;;;29.1;;
44126;SDS011;29786;50.798;7.302;2022-07-23T05:37:48;49.6;;;29.4;;
44126;SDS011;29786;50.798;7.302;2022-07-23T05:38:48;47;;;28.5;;
44126;SDS011;29786;50.798;7.302;2022-07-23T05:39:48;43.2;;;28.5;;
44126;SDS011;29786;50.798;7.302;2022-07-23T05:40:48;45.4;;;28.1;;
44126;SDS011;29786;50.798;7.302;2022-07-23T05:41:48;44;;;28.8;;
44126;SDS011;29786;50.798;7.302;2022-07-23T05:42:48;46.2;;;30.4;;
44126;SDS011;29786;50.798;7.302;2022-07-23T05:43:49;44.8;;;27.5;;
44126;SDS011;29786;50.798;7.302;2022-07-23T05:44:48;44.5;;;28.6;;
44126;SDS011;29786;50.798;7.302;2022-07-23T05:45:48;46.2;;;29.6;;
44126;SDS011;29786;50.798;7.302;2022-07-23T05:46:49;46.4;;;28.8;;
44126;SDS011;29786;50.798;7.302;2022-07-23T05:47:49;48.4;;;29.6;;
44126;SDS011;29786;50.798;7.302;2022-07-23T05:48:48;48.5;;;30.2;;
44126;SDS011;29786;50.798;7.302;2022-07-23T05:49:49;48.2;;;29.6;;
44126;SDS011;29786;50.798;7.302;2022-07-23T05:50:48;46.2;;;28.9;;
44126;SDS011;29786;50.798;7.302;2022-07-23T05:51:48;44.9;;;28.1;;
44126;SDS011;29786;50.798;7.302;2022-07-23T05:52:48;48;;;28.6;;
44126;SDS011;29786;50.798;7.302;2022-07-23T05:53:49;43.1;;;27.1;;
44126;SDS011;29786;50.798;7.302;2022-07-23T05:54:48;45.6;;;28.4;;
44126;SDS011;29786;50.798;7.302;2022-07-23T05:55:49;42.5;;;28.1;;
44126;SDS011;29786;50.798;7.302;2022-07-23T05:56:48;47.6;;;29.3;;
44126;SDS011;29786;50.798;7.302;2022-07-23T05:57:48;41.5;;;26.5;;
44126;SDS011;29786;50.798;7.302;2022-07-23T05:58:48;41.1;;;26.9;;
44126;SDS011;29786;50.798;7.302;2022-07-23T05:59:48;44.9;;;26.4;;
44126;SDS011;29786;50.798;7.302;2022-07-23T06:00:48;43.5;;;26.2;;
44126;SDS011;29786;50.798;7.302;2022-07-23T06:01:48;37.9;;;23.3;;
44126;SDS011;29786;50.798;7.302;2022-07-23T06:02:48;36.9;;;23.8;;
44126;SDS011;29786;50.798;7.302;2022-07-23T06:03:49;36.7;;;24.2;;
44126;SDS011;29786;50.798;7.302;2022-07-23T06:04:48;35.8;;;23.8;;
44126;SDS011;29786;50.798;7.302;2022-07-23T06:05:48;31.8;;;21.3;;
44126;SDS011;29786;50.798;7.302;2022-07-23T06:06:48;35.3;;;21.4;;
44126;SDS011;29786;50.798;7.302;2022-07-23T06:07:49;33.2;;;20.3;;
44126;SDS011;29786;50.798;7.302;2022-07-23T06:08:48;30.2;;;18.7;;
44126;SDS011;29786;50.798;7.302;2022-07-23T06:09:48;30.4;;;20;;
44126;SDS011;29786;50.798;7.302;2022-07-23T06:10:48;30.5;;;20.1;;
44126;SDS011;29786;50.798;7.302;2022-07-23T06:11:48;29.6;;;19.8;;
44126;SDS011;29786;50.798;7.302;2022-07-23T06:12:48;30.8;;;21;;
44126;SDS011;29786;50.798;7.302;2022-07-23T06:13:48;30.1;;;19.2;;
44126;SDS011;29786;50.798;7.302;2022-07-23T06:14:48;33.3;;;21.2;;
44126;SDS011;29786;50.798;7.302;2022-07-23T06:15:48;35.2;;;21.1;;
44126;SDS011;29786;50.798;7.302;2022-07-23T06:16:48;32.6;;;20.6;;
44126;SDS011;29786;50.798;7.302;2022-07-23T06:17:48;28.3;;;20.8;;
44126;SDS011;29786;50.798;7.302;2022-07-23T06:18:48;30.7;;;20.5;;
44126;SDS011;29786;50.798;7.302;2022-07-23T06:19:48;28.3;;;20.4;;
44126;SDS011;29786;50.798;7.302;2022-07-23T06:20:48;31.4;;;20.9;;
44126;SDS011;29786;50.798;7.302;2022-07-23T06:21:48;30;;;20.1;;
44126;SDS011;29786;50.798;7.302;2022-07-23T06:22:48;28.4;;;18.7;;